Time;durP1;ratioP1;P1;durP2;ratioP2;P2;SDS_P1;SDS_P2;PMS_P1;PMS_P2;Temp;Humidity;BMP_temperature;BMP_pressure;BME280_temperature;BME280_humidity;BME280_pressure;Samples;Min_cycle;Max_cycle;Signal;HPM_P1;HPM_P2
2023/04/13 00:00:22;;;;;;;0.27;0.00;;;7.10;99.90;;;;;;4949744;28;20735;-51
2023/04/13 00:02:54;;;;;;;0.87;0.00;;;7.10;99.90;;;;;;4953145;28;20203;-49
2023/04/13 00:05:23;;;;;;;0.17;0.10;;;7.10;99.90;;;;;;4950728;28;20318;-50
2023/04/13 00:07:52;;;;;;;0.00;0.00;;;7.10;99.90;;;;;;4952716;28;20721;-52
2023/04/13 00:10:19;;;;;;;0.00;0.00;;;7.10;99.90;;;;;;4951904;28;20594;-49
2023/04/13 00:12:47;;;;;;;1.07;0.10;;;7.10;99.90;;;;;;4954812;28;20222;-48
2023/04/13 00:15:15;;;;;;;1.00;0.00;;;7.10;99.90;;;;;;4951152;29;20660;-49
2023/04/13 00:17:44;;;;;;;0.30;0.00;;;7.10;99.90;;;;;;4953018;29;20328;-49
2023/04/13 00:20:13;;;;;;;0.40;0.00;;;7.10;99.90;;;;;;4953792;28;20229;-49
2023/04/13 00:22:41;;;;;;;0.00;0.00;;;7.00;99.90;;;;;;4951156;29;20215;-49
2023/04/13 00:25:10;;;;;;;0.10;0.07;;;7.10;99.90;;;;;;4951250;29;20218;-49
2023/04/13 00:27:41;;;;;;;0.63;0.00;;;7.10;99.90;;;;;;4949986;29;20209;-49
2023/04/13 00:30:10;;;;;;;0.40;0.00;;;7.10;99.90;;;;;;4948909;29;20717;-49
2023/04/13 00:32:39;;;;;;;0.70;0.00;;;7.10;99.90;;;;;;4952306;28;20944;-49
2023/04/13 00:35:07;;;;;;;0.17;0.00;;;7.10;99.90;;;;;;4953749;29;20197;-48
2023/04/13 00:37:34;;;;;;;0.17;0.17;;;7.10;99.90;;;;;;4951653;29;20217;-49
2023/04/13 00:40:01;;;;;;;0.10;0.10;;;7.00;99.90;;;;;;4951562;28;20225;-49
2023/04/13 00:42:30;;;;;;;0.07;0.00;;;7.00;99.90;;;;;;4953690;28;20570;-49
2023/04/13 00:44:57;;;;;;;0.73;0.10;;;7.00;99.90;;;;;;4952895;29;20660;-48
2023/04/13 00:47:27;;;;;;;0.87;0.10;;;7.00;99.90;;;;;;4949078;29;20242;-48
2023/04/13 00:49:55;;;;;;;0.60;0.10;;;7.00;99.90;;;;;;4945650;29;20282;-48
2023/04/13 00:52:23;;;;;;;2.27;0.20;;;6.90;99.90;;;;;;4950127;28;20266;-49
2023/04/13 00:54:51;;;;;;;0.20;0.20;;;6.90;99.90;;;;;;4951181;29;21970;-49
2023/04/13 00:57:19;;;;;;;0.67;0.30;;;6.90;99.90;;;;;;4952803;29;20199;-48
2023/04/13 00:59:49;;;;;;;0.10;0.10;;;6.90;99.90;;;;;;4943346;28;20355;-49
2023/04/13 01:02:16;;;;;;;0.63;0.10;;;6.90;99.90;;;;;;4949722;29;20200;-49
2023/04/13 01:04:44;;;;;;;0.00;0.00;;;6.80;99.90;;;;;;4951629;29;20283;-50
2023/04/13 01:07:16;;;;;;;0.10;0.10;;;6.90;99.90;;;;;;4952862;28;20210;-48
2023/04/13 01:09:51;;;;;;;0.50;0.10;;;6.80;99.90;;;;;;4951919;28;20285;-49
2023/04/13 01:12:26;;;;;;;0.47;0.20;;;6.80;99.90;;;;;;4947697;29;20206;-49
2023/04/13 01:15:05;;;;;;;1.03;0.77;;;6.80;99.90;;;;;;4946597;29;20197;-48
2023/04/13 01:17:35;;;;;;;1.10;0.10;;;6.80;99.90;;;;;;4952572;28;20207;-49
2023/04/13 01:20:09;;;;;;;0.37;0.20;;;6.80;99.90;;;;;;4952997;28;20227;-49
2023/04/13 01:22:44;;;;;;;0.10;0.10;;;6.80;99.90;;;;;;4950922;28;20258;-48
2023/04/13 01:25:27;;;;;;;0.37;0.10;;;6.80;99.90;;;;;;4952446;28;20229;-49
2023/04/13 01:28:00;;;;;;;0.20;0.10;;;6.80;99.90;;;;;;4946124;29;20258;-49
2023/04/13 01:30:28;;;;;;;1.93;0.40;;;6.80;99.90;;;;;;4952364;28;20281;-49
2023/04/13 01:32:56;;;;;;;1.00;0.40;;;6.80;99.90;;;;;;4952086;29;20729;-49
2023/04/13 01:35:24;;;;;;;0.60;0.20;;;6.80;99.90;;;;;;4951375;28;20290;-48
2023/04/13 01:37:52;;;;;;;1.33;0.60;;;6.80;99.90;;;;;;4953295;29;20211;-49
2023/04/13 01:40:19;;;;;;;0.20;0.20;;;6.80;99.90;;;;;;4952377;29;20227;-48
2023/04/13 01:42:46;;;;;;;0.10;0.10;;;6.80;99.90;;;;;;4950090;29;20200;-48
2023/04/13 01:45:18;;;;;;;0.20;0.10;;;6.80;99.90;;;;;;4955445;28;20706;-48
2023/04/13 01:47:54;;;;;;;0.50;0.30;;;6.90;99.90;;;;;;4956671;28;20281;-48
2023/04/13 01:50:27;;;;;;;0.40;0.20;;;6.90;99.90;;;;;;4956558;28;20713;-48
2023/04/13 01:52:57;;;;;;;0.20;0.10;;;6.90;99.90;;;;;;4954824;29;20220;-49
2023/04/13 01:55:25;;;;;;;0.40;0.10;;;6.90;99.90;;;;;;4956097;28;20261;-48
2023/04/13 01:57:55;;;;;;;0.17;0.10;;;6.90;99.90;;;;;;4955110;28;20257;-49
2023/04/13 02:00:30;;;;;;;0.27;0.27;;;6.90;99.90;;;;;;4956425;28;20249;-49
2023/04/13 02:02:57;;;;;;;0.13;0.13;;;6.90;99.90;;;;;;4952094;29;20669;-48
2023/04/13 02:05:24;;;;;;;0.47;0.10;;;6.80;99.90;;;;;;4956406;28;20226;-48
2023/04/13 02:07:51;;;;;;;0.03;0.03;;;6.90;99.90;;;;;;4956226;28;20261;-48
2023/04/13 02:10:18;;;;;;;2.53;0.23;;;6.80;99.90;;;;;;4955706;28;20643;-48
2023/04/13 02:12:46;;;;;;;0.30;0.10;;;6.80;99.90;;;;;;4952557;29;20214;-48
2023/04/13 02:15:13;;;;;;;0.27;0.10;;;6.80;99.90;;;;;;4956881;28;20199;-48
2023/04/13 02:17:45;;;;;;;0.40;0.40;;;6.60;99.90;;;;;;4953981;28;20207;-48
2023/04/13 02:20:12;;;;;;;0.27;0.27;;;6.60;99.90;;;;;;4950513;28;20230;-48
2023/04/13 02:22:42;;;;;;;0.13;0.13;;;6.50;99.90;;;;;;4952482;29;20268;-48
2023/04/13 02:25:11;;;;;;;0.30;0.10;;;6.50;99.90;;;;;;4953716;28;20254;-48
2023/04/13 02:27:41;;;;;;;0.57;0.10;;;6.60;99.90;;;;;;4954495;28;20207;-48
2023/04/13 02:30:09;;;;;;;0.20;0.13;;;6.60;99.90;;;;;;4952795;28;20281;-48
2023/04/13 02:32:38;;;;;;;1.13;0.40;;;6.60;99.90;;;;;;4954927;28;20215;-48
2023/04/13 02:35:09;;;;;;;0.10;0.10;;;6.60;99.90;;;;;;4950657;28;20676;-48
2023/04/13 02:37:38;;;;;;;0.83;0.23;;;6.60;99.90;;;;;;4955477;29;20217;-48
2023/04/13 02:40:07;;;;;;;0.60;0.20;;;6.60;99.90;;;;;;4955048;28;20721;-48
2023/04/13 02:42:34;;;;;;;0.33;0.20;;;6.60;99.90;;;;;;4955241;28;20735;-48
2023/04/13 02:45:01;;;;;;;0.87;0.30;;;6.50;99.90;;;;;;4952828;28;20210;-48
2023/04/13 02:47:28;;;;;;;2.13;0.20;;;6.40;99.90;;;;;;4955743;28;20203;-50
2023/04/13 02:49:55;;;;;;;1.40;0.10;;;6.40;99.90;;;;;;4956274;28;20219;-50
2023/04/13 02:52:23;;;;;;;2.77;0.23;;;6.40;99.90;;;;;;4954394;29;20229;-50
2023/04/13 02:54:53;;;;;;;1.57;0.20;;;6.30;99.90;;;;;;4954817;28;20210;-50
2023/04/13 02:57:21;;;;;;;1.37;0.20;;;6.30;99.90;;;;;;4950248;29;20663;-50
2023/04/13 02:59:48;;;;;;;0.57;0.13;;;6.30;99.90;;;;;;4953037;28;20726;-51
2023/04/13 07:04:44;;;;;;;1.90;0.93;;;7.70;99.90;;;;;;4962525;28;20659;-45
2023/04/13 07:07:11;;;;;;;2.57;0.20;;;7.60;99.90;;;;;;4953998;28;20596;-46
2023/04/13 07:09:38;;;;;;;0.30;0.20;;;7.60;99.90;;;;;;4956091;28;20269;-45
2023/04/13 10:57:07;;;;;;;2.37;0.50;;;10.40;99.90;;;;;;4995264;28;20286;-46
2023/04/13 10:59:43;;;;;;;1.83;0.50;;;10.10;99.90;;;;;;4989808;28;20241;-45
2023/04/13 11:02:13;;;;;;;9.63;0.80;;;9.60;99.90;;;;;;4999344;28;20197;-45
2023/04/13 11:04:40;;;;;;;2.03;0.47;;;9.10;99.90;;;;;;4994630;28;20214;-46
2023/04/13 11:07:14;;;;;;;5.33;0.70;;;8.90;99.90;;;;;;4978375;28;20286;-44
2023/04/13 11:09:42;;;;;;;1.40;0.70;;;8.70;99.90;;;;;;4975082;28;20254;-44
2023/04/13 11:12:12;;;;;;;4.63;0.93;;;8.50;99.90;;;;;;4975381;28;20206;-44
2023/04/13 11:14:39;;;;;;;1.43;0.50;;;8.40;99.90;;;;;;4975214;28;20234;-45
2023/04/13 11:17:06;;;;;;;4.60;0.43;;;8.50;99.90;;;;;;4974145;28;20206;-44
2023/04/13 11:19:34;;;;;;;1.70;1.60;;;8.50;99.90;;;;;;4977856;28;20231;-44
2023/04/13 11:22:01;;;;;;;2.00;1.63;;;8.70;99.90;;;;;;4995983;28;20208;-46
2023/04/13 11:24:32;;;;;;;3.70;1.27;;;8.70;99.90;;;;;;4975939;28;20214;-45
2023/04/13 11:27:00;;;;;;;2.40;0.60;;;8.90;99.90;;;;;;4974931;28;20226;-45
2023/04/13 11:29:28;;;;;;;2.13;1.47;;;9.00;99.90;;;;;;4979697;28;20295;-44
2023/04/13 11:31:56;;;;;;;11.70;4.57;;;9.10;99.90;;;;;;5005542;28;20284;-45
2023/04/13 11:34:28;;;;;;;4.50;2.27;;;9.30;99.90;;;;;;5013557;28;20205;-45
2023/04/13 11:37:04;;;;;;;12.30;6.07;;;9.30;99.90;;;;;;5014210;28;20217;-46
2023/04/13 11:39:31;;;;;;;10.17;5.07;;;9.70;99.90;;;;;;4996644;28;20746;-44
2023/04/13 11:42:03;;;;;;;17.53;10.43;;;9.90;99.90;;;;;;4988048;28;20192;-44
2023/04/13 11:44:34;;;;;;;13.07;6.17;;;9.70;99.90;;;;;;4994953;28;20256;-44
2023/04/13 11:47:03;;;;;;;7.37;1.10;;;9.50;99.90;;;;;;4988455;28;20227;-45
2023/04/13 11:49:30;;;;;;;3.07;0.53;;;9.50;99.90;;;;;;4995300;28;20226;-45
2023/04/13 11:51:58;;;;;;;3.53;0.67;;;9.30;99.90;;;;;;5003053;28;20192;-45
2023/04/13 11:54:26;;;;;;;1.37;0.50;;;9.20;99.90;;;;;;4994909;28;20638;-45
2023/04/13 11:56:54;;;;;;;2.93;0.93;;;9.30;99.90;;;;;;5009653;28;20264;-48
2023/04/13 11:59:24;;;;;;;3.30;0.70;;;9.30;99.90;;;;;;5008524;28;20331;-48
2023/04/13 12:01:52;;;;;;;3.97;0.90;;;9.10;99.90;;;;;;5019210;28;20222;-44
2023/04/13 12:04:19;;;;;;;3.30;1.13;;;9.00;99.90;;;;;;5010278;28;20227;-44
2023/04/13 12:06:46;;;;;;;5.33;0.97;;;9.00;99.90;;;;;;5001931;28;20698;-44
2023/04/13 12:09:14;;;;;;;3.10;0.70;;;9.10;99.90;;;;;;4994423;28;20702;-45
2023/04/13 12:11:44;;;;;;;3.58;0.60;;;8.80;99.90;;;;;;5006700;28;20440;-44
2023/04/13 12:14:21;;;;;;;0.83;0.50;;;9.10;99.90;;;;;;5001951;28;20205;-45
2023/04/13 12:33:48;;;;;;;0.60;0.40;;;9.60;99.90;;;;;;4994184;28;20209;-44
2023/04/13 12:36:15;;;;;;;1.90;0.40;;;9.50;99.90;;;;;;4984912;28;20198;-45
2023/04/13 12:38:42;;;;;;;2.23;0.27;;;9.80;99.90;;;;;;5012755;28;20616;-45
2023/04/13 12:41:10;;;;;;;2.87;0.40;;;9.90;99.90;;;;;;5001485;28;20206;-45
2023/04/13 12:43:40;;;;;;;2.73;0.50;;;10.00;99.90;;;;;;4993689;28;20217;-45
2023/04/13 12:46:07;;;;;;;2.93;0.50;;;10.10;99.90;;;;;;4993026;28;20712;-46
2023/04/13 12:48:36;;;;;;;2.93;0.30;;;10.10;99.90;;;;;;4981000;28;20214;-45
2023/04/13 12:51:05;;;;;;;2.17;0.43;;;10.10;99.90;;;;;;4973311;28;20211;-45
2023/04/13 12:53:34;;;;;;;1.50;0.40;;;10.20;99.90;;;;;;4986086;28;20206;-45
2023/04/13 12:56:01;;;;;;;0.40;0.40;;;10.30;99.90;;;;;;4992848;28;20248;-45
2023/04/13 12:58:28;;;;;;;2.57;0.50;;;10.40;99.90;;;;;;4977237;28;20259;-45
2023/04/13 13:00:55;;;;;;;1.20;0.30;;;10.40;99.90;;;;;;4973247;28;20275;-45
2023/04/13 13:03:22;;;;;;;5.60;0.93;;;10.40;99.90;;;;;;4977748;28;20202;-46
2023/04/13 13:05:49;;;;;;;3.60;0.30;;;10.30;99.90;;;;;;5000468;28;20198;-45
2023/04/13 13:08:18;;;;;;;1.83;0.20;;;10.20;99.90;;;;;;5003002;28;20229;-45
2023/04/13 13:10:45;;;;;;;2.63;0.50;;;10.20;99.90;;;;;;4998328;28;20611;-45
2023/04/13 13:13:15;;;;;;;3.40;0.30;;;10.20;99.90;;;;;;5007207;28;20669;-45
2023/04/13 13:15:42;;;;;;;2.80;0.50;;;9.90;99.90;;;;;;5012002;28;20670;-44
2023/04/13 13:18:10;;;;;;;1.50;0.30;;;9.90;99.90;;;;;;5012150;28;20201;-45
2023/04/13 13:20:40;;;;;;;3.07;0.40;;;9.90;99.90;;;;;;4994173;28;20237;-45
2023/04/13 13:23:07;;;;;;;2.63;0.40;;;9.80;99.90;;;;;;5002092;28;20272;-45
2023/04/13 13:25:35;;;;;;;3.97;0.50;;;9.80;99.90;;;;;;5011892;28;20793;-45
2023/04/13 13:28:07;;;;;;;2.47;0.30;;;9.80;99.90;;;;;;5000787;28;20228;-44
2023/04/13 13:30:34;;;;;;;1.63;0.50;;;9.60;99.90;;;;;;4999190;28;20247;-45
2023/04/13 13:33:01;;;;;;;2.03;0.43;;;9.50;99.90;;;;;;5006053;28;20621;-45
2023/04/13 13:35:31;;;;;;;1.00;0.50;;;9.60;99.90;;;;;;5011747;28;20271;-44
2023/04/13 13:37:58;;;;;;;2.77;0.53;;;9.60;99.90;;;;;;5011683;28;20209;-45
2023/04/13 13:40:25;;;;;;;1.10;0.50;;;9.70;99.90;;;;;;4995174;28;20228;-45
2023/04/13 13:42:53;;;;;;;0.87;0.53;;;9.80;99.90;;;;;;5004336;28;20205;-44
2023/04/13 13:45:21;;;;;;;2.13;0.30;;;9.50;99.90;;;;;;5011637;28;20208;-45
2023/04/13 13:47:52;;;;;;;2.78;0.70;;;9.60;99.90;;;;;;5010009;28;20455;-44
2023/04/13 13:50:20;;;;;;;1.30;0.30;;;9.50;99.90;;;;;;4997740;28;20329;-45
2023/04/13 13:52:47;;;;;;;2.73;0.40;;;9.40;99.90;;;;;;5003727;28;20259;-45
2023/04/13 13:55:14;;;;;;;3.03;0.60;;;9.30;99.90;;;;;;5009082;28;20205;-45
2023/04/13 13:57:42;;;;;;;2.57;0.40;;;9.20;99.90;;;;;;4976178;28;20698;-45
2023/04/13 14:00:15;;;;;;;1.47;0.57;;;9.30;99.90;;;;;;4991061;28;20295;-45
2023/04/13 14:02:43;;;;;;;2.20;0.67;;;9.40;99.90;;;;;;4993997;28;20231;-44
2023/04/13 14:05:12;;;;;;;2.20;0.53;;;9.40;99.90;;;;;;4992067;28;20224;-44
2023/04/13 14:07:40;;;;;;;1.53;0.60;;;9.60;99.90;;;;;;4991888;28;20237;-45
2023/04/13 14:10:09;;;;;;;2.13;0.60;;;9.70;99.90;;;;;;4996881;28;20225;-45
2023/04/13 14:12:37;;;;;;;2.80;0.50;;;9.50;99.90;;;;;;4997743;28;20256;-46
2023/04/13 14:15:05;;;;;;;1.73;0.60;;;9.60;99.90;;;;;;4991411;28;20269;-44
2023/04/13 14:17:33;;;;;;;2.37;0.70;;;9.40;99.90;;;;;;4991601;28;20625;-45
2023/04/13 14:20:01;;;;;;;3.13;0.60;;;9.20;99.90;;;;;;4990678;28;20223;-44
2023/04/13 14:22:28;;;;;;;1.93;0.93;;;9.30;99.90;;;;;;5003130;28;20208;-44
2023/04/13 14:24:55;;;;;;;2.80;0.80;;;9.40;99.90;;;;;;5011434;28;20268;-44
2023/04/13 14:27:22;;;;;;;4.63;0.67;;;9.50;99.90;;;;;;5011080;28;20224;-45
2023/04/13 14:29:49;;;;;;;3.60;0.47;;;9.60;99.90;;;;;;5000492;28;20577;-45
2023/04/13 14:32:16;;;;;;;1.97;0.77;;;9.50;99.90;;;;;;5003222;28;20209;-44
2023/04/13 14:34:45;;;;;;;0.67;0.40;;;9.60;99.90;;;;;;5008463;28;20212;-44
2023/04/13 14:37:12;;;;;;;4.13;0.60;;;9.60;99.90;;;;;;4984745;28;20859;-45
2023/04/13 14:39:39;;;;;;;1.53;0.40;;;9.40;99.90;;;;;;4994449;28;20412;-45
2023/04/13 14:42:07;;;;;;;2.90;0.30;;;9.30;99.90;;;;;;5002893;28;20197;-45
2023/04/13 14:44:34;;;;;;;2.60;0.80;;;9.40;99.90;;;;;;5010666;28;20209;-44
2023/04/13 14:47:01;;;;;;;0.93;0.40;;;9.50;99.90;;;;;;4995691;28;20277;-44
2023/04/13 14:49:28;;;;;;;0.87;0.87;;;9.60;99.90;;;;;;4973732;28;20251;-44
2023/04/13 14:51:56;;;;;;;4.93;1.17;;;9.70;99.90;;;;;;5004376;28;20267;-45
2023/04/13 14:54:23;;;;;;;6.20;0.63;;;9.70;99.90;;;;;;5014520;28;20201;-44
2023/04/13 14:56:51;;;;;;;3.43;0.60;;;9.40;99.90;;;;;;5014440;28;20748;-45
2023/04/13 14:59:17;;;;;;;1.43;0.47;;;9.40;99.90;;;;;;5004786;28;20713;-45
2023/04/13 15:01:45;;;;;;;7.17;1.00;;;9.50;99.90;;;;;;4995007;28;20192;-45
2023/04/13 15:04:12;;;;;;;0.83;0.53;;;9.50;99.90;;;;;;4986097;28;20206;-45
2023/04/13 15:06:40;;;;;;;2.90;0.50;;;9.40;99.90;;;;;;4975105;28;20679;-44
2023/04/13 15:09:08;;;;;;;1.50;0.50;;;9.20;99.90;;;;;;4974685;28;20236;-45
2023/04/13 15:11:36;;;;;;;1.60;0.60;;;9.30;99.90;;;;;;5003574;28;20585;-45
2023/04/13 15:14:03;;;;;;;1.20;0.47;;;9.30;99.90;;;;;;5013902;28;20245;-45
2023/04/13 15:16:30;;;;;;;2.50;0.57;;;9.40;99.90;;;;;;5014308;28;20204;-44
2023/04/13 15:18:58;;;;;;;7.43;1.13;;;9.50;99.90;;;;;;5011849;28;20232;-45
2023/04/13 15:21:26;;;;;;;1.33;0.40;;;9.60;99.90;;;;;;5006767;28;20209;-45
2023/04/13 15:23:53;;;;;;;1.80;0.70;;;9.50;99.90;;;;;;4994442;28;20197;-45
2023/04/13 15:26:22;;;;;;;0.33;0.33;;;9.50;99.90;;;;;;4994391;28;20632;-46
2023/04/13 15:28:49;;;;;;;1.80;0.47;;;9.40;99.90;;;;;;4993978;28;20589;-45
2023/04/13 15:31:16;;;;;;;3.07;0.50;;;9.50;99.90;;;;;;4998441;28;20202;-45
2023/04/13 15:33:43;;;;;;;1.30;0.37;;;9.50;99.90;;;;;;5013658;28;20200;-45
2023/04/13 15:36:14;;;;;;;1.93;0.67;;;9.40;99.90;;;;;;5013901;28;20678;-45
2023/04/13 15:38:41;;;;;;;3.00;0.43;;;9.50;99.90;;;;;;4987758;28;20213;-44
2023/04/13 15:41:09;;;;;;;0.60;0.30;;;9.50;99.90;;;;;;5000030;28;20738;-45
2023/04/13 15:43:42;;;;;;;1.40;0.37;;;9.50;99.90;;;;;;5004602;28;20210;-44
2023/04/13 15:46:10;;;;;;;1.27;0.50;;;9.50;99.90;;;;;;4975260;28;20289;-45
2023/04/13 15:48:40;;;;;;;3.13;0.40;;;9.50;99.90;;;;;;4975116;28;20218;-45
2023/04/13 15:51:07;;;;;;;1.97;0.30;;;9.50;99.90;;;;;;4996678;28;20730;-45
2023/04/13 15:53:34;;;;;;;0.93;0.40;;;9.40;99.90;;;;;;5010806;28;20199;-45
2023/04/13 15:56:01;;;;;;;2.93;0.30;;;9.50;99.90;;;;;;4982094;28;20206;-44
2023/04/13 15:58:28;;;;;;;2.17;0.70;;;9.50;99.90;;;;;;4973946;28;20643;-45
2023/04/13 16:01:03;;;;;;;1.30;0.30;;;9.50;99.90;;;;;;4997155;28;20226;-45
2023/04/13 16:03:30;;;;;;;1.43;0.47;;;9.40;99.90;;;;;;5010549;28;20334;-44
2023/04/13 16:05:57;;;;;;;1.03;0.30;;;9.50;99.90;;;;;;5013263;28;20209;-44
2023/04/13 16:08:24;;;;;;;0.40;0.40;;;9.40;99.90;;;;;;4993109;28;20218;-46
2023/04/13 16:10:52;;;;;;;2.40;0.43;;;9.40;99.90;;;;;;4973440;28;20731;-44
2023/04/13 16:13:18;;;;;;;2.50;0.43;;;9.50;99.90;;;;;;4998154;28;20202;-44
2023/04/13 16:15:51;;;;;;;1.47;0.30;;;9.40;99.90;;;;;;4974400;28;20253;-46
2023/04/13 16:18:20;;;;;;;2.70;1.00;;;9.20;99.90;;;;;;4974030;28;20212;-44
2023/04/13 16:20:48;;;;;;;0.50;0.50;;;9.30;99.90;;;;;;4973598;28;20318;-45
2023/04/13 16:23:15;;;;;;;2.03;0.53;;;9.30;99.90;;;;;;4973806;28;20207;-45
2023/04/13 16:25:42;;;;;;;4.43;0.63;;;9.30;99.90;;;;;;4980097;28;20573;-45
2023/04/13 16:28:09;;;;;;;0.73;0.40;;;9.30;99.90;;;;;;5003410;28;20220;-45
2023/04/13 16:30:38;;;;;;;2.27;0.47;;;9.30;99.90;;;;;;4973357;28;20219;-44
2023/04/13 16:33:05;;;;;;;2.10;0.40;;;9.30;99.90;;;;;;4973933;28;20206;-45
2023/04/13 16:35:33;;;;;;;5.30;0.60;;;9.30;99.90;;;;;;4973625;28;20206;-45
2023/04/13 16:38:00;;;;;;;0.90;0.40;;;9.30;99.90;;;;;;4973773;28;20207;-45
2023/04/13 16:40:27;;;;;;;4.00;0.90;;;9.30;99.90;;;;;;4991675;28;20269;-45
2023/04/13 16:42:54;;;;;;;0.87;0.50;;;9.30;99.90;;;;;;4980442;28;20219;-45
2023/04/13 16:45:23;;;;;;;1.90;0.50;;;9.30;99.90;;;;;;4999468;28;20217;-44
2023/04/13 16:47:52;;;;;;;2.17;0.83;;;9.30;99.90;;;;;;5001070;28;20292;-45
2023/04/13 16:50:20;;;;;;;2.70;1.13;;;9.20;99.90;;;;;;5000456;28;20225;-45
2023/04/13 16:52:49;;;;;;;4.13;0.70;;;9.20;99.90;;;;;;4986335;28;20206;-45
2023/04/13 16:55:16;;;;;;;1.00;0.40;;;9.20;99.90;;;;;;4997277;28;20212;-44
2023/04/13 16:57:44;;;;;;;2.37;0.40;;;9.20;99.90;;;;;;4982857;28;20206;-43
2023/04/13 17:00:13;;;;;;;3.53;0.50;;;9.10;99.90;;;;;;4998858;28;20232;-44
2023/04/13 17:02:42;;;;;;;3.00;0.30;;;8.90;99.90;;;;;;4997411;28;20229;-44
2023/04/13 17:05:10;;;;;;;0.77;0.43;;;8.80;99.90;;;;;;4995072;28;20265;-44
2023/04/13 17:07:38;;;;;;;1.67;0.60;;;8.60;99.90;;;;;;5000917;28;20284;-45
2023/04/13 17:10:08;;;;;;;2.80;0.40;;;8.40;99.90;;;;;;5001033;28;20634;-44
2023/04/13 17:12:35;;;;;;;0.67;0.20;;;8.30;99.90;;;;;;4985820;28;20211;-44
2023/04/13 17:15:04;;;;;;;0.53;0.33;;;8.10;99.90;;;;;;4978955;28;20214;-44
2023/04/13 17:17:31;;;;;;;1.47;0.40;;;8.00;99.90;;;;;;4994087;28;20214;-44
2023/04/13 17:19:58;;;;;;;0.73;0.20;;;8.00;99.90;;;;;;5000450;28;20217;-44
2023/04/13 17:22:24;;;;;;;0.30;0.30;;;7.90;99.90;;;;;;4991109;28;20746;-45
2023/04/13 17:24:51;;;;;;;1.70;0.30;;;7.90;99.90;;;;;;4995222;28;20268;-44
2023/04/13 17:27:20;;;;;;;1.60;0.70;;;7.80;99.90;;;;;;5000506;28;20517;-44
2023/04/13 17:29:48;;;;;;;0.57;0.37;;;7.70;99.90;;;;;;4985670;28;20228;-44
2023/04/13 17:32:15;;;;;;;0.93;0.50;;;7.70;99.90;;;;;;4989751;28;20203;-44
2023/04/13 17:34:43;;;;;;;0.43;0.20;;;7.60;99.90;;;;;;5001684;28;20200;-45
2023/04/13 17:37:10;;;;;;;0.30;0.30;;;7.50;99.90;;;;;;4996133;28;20298;-44
2023/04/13 17:39:40;;;;;;;0.73;0.20;;;7.50;99.90;;;;;;5000928;28;20252;-45
2023/04/13 17:42:08;;;;;;;0.60;0.40;;;7.50;99.90;;;;;;5011386;28;20262;-46
2023/04/13 17:44:36;;;;;;;1.20;0.30;;;7.40;99.90;;;;;;4992962;28;20208;-45
2023/04/13 17:47:03;;;;;;;0.40;0.27;;;7.40;99.90;;;;;;4997736;28;20270;-45
2023/04/13 17:49:30;;;;;;;0.30;0.23;;;7.40;99.90;;;;;;5011006;28;20299;-44
2023/04/13 17:51:59;;;;;;;0.37;0.20;;;7.40;99.90;;;;;;4988760;28;20332;-45
2023/04/13 17:54:26;;;;;;;0.50;0.50;;;7.40;99.90;;;;;;4978084;28;20795;-44
2023/04/13 17:56:53;;;;;;;0.40;0.30;;;7.40;99.90;;;;;;4972732;28;20208;-45
2023/04/13 17:59:20;;;;;;;0.50;0.43;;;7.40;99.90;;;;;;4998012;28;20291;-45
2023/04/13 18:01:51;;;;;;;1.03;0.43;;;7.30;99.90;;;;;;4994801;28;20199;-44
2023/04/13 18:04:18;;;;;;;0.70;0.30;;;7.40;99.90;;;;;;4991389;28;20572;-44
2023/04/13 18:06:45;;;;;;;2.00;0.30;;;7.40;99.90;;;;;;4991643;28;20256;-45
2023/04/13 18:09:13;;;;;;;0.70;0.70;;;7.30;99.90;;;;;;4990908;28;20645;-45
2023/04/13 18:11:40;;;;;;;0.30;0.30;;;7.30;99.90;;;;;;4973806;28;20608;-46
2023/04/13 18:14:07;;;;;;;0.20;0.20;;;7.20;99.90;;;;;;5006199;28;20219;-45
2023/04/13 18:16:35;;;;;;;0.30;0.20;;;7.30;99.90;;;;;;5009053;28;20297;-44
2023/04/13 18:19:03;;;;;;;1.13;0.10;;;7.30;99.90;;;;;;4983718;28;20296;-45
2023/04/13 18:21:31;;;;;;;2.43;0.20;;;7.30;99.90;;;;;;4989779;28;20670;-45
2023/04/13 18:23:59;;;;;;;0.77;0.30;;;7.30;99.90;;;;;;4989117;28;20750;-44
2023/04/13 18:26:26;;;;;;;5.07;0.60;;;7.20;99.90;;;;;;5004243;28;20200;-45
2023/04/13 18:28:53;;;;;;;1.03;0.47;;;7.20;99.90;;;;;;4986069;28;20230;-45
2023/04/13 18:31:20;;;;;;;0.20;0.10;;;7.20;99.90;;;;;;4995243;28;20208;-44
2023/04/13 18:33:47;;;;;;;0.20;0.20;;;7.20;99.90;;;;;;4989125;28;20293;-45
2023/04/13 18:36:16;;;;;;;1.07;0.07;;;7.20;99.90;;;;;;4988220;28;20623;-44
2023/04/13 18:38:43;;;;;;;0.30;0.10;;;7.20;99.90;;;;;;5005250;28;20199;-44
2023/04/13 18:41:10;;;;;;;1.63;0.20;;;7.10;99.90;;;;;;5001780;28;20265;-45
2023/04/13 18:43:38;;;;;;;0.20;0.13;;;7.10;99.90;;;;;;4998314;28;20261;-45
2023/04/13 18:46:07;;;;;;;1.47;0.30;;;7.00;99.90;;;;;;4993543;28;20562;-44
2023/04/13 18:48:34;;;;;;;0.43;0.43;;;7.10;99.90;;;;;;4984269;28;20306;-46
2023/04/13 18:51:01;;;;;;;0.17;0.17;;;7.20;99.90;;;;;;5000711;28;20224;-44
2023/04/13 18:53:30;;;;;;;2.57;0.20;;;7.30;99.90;;;;;;4999801;28;20332;-45
2023/04/13 18:55:58;;;;;;;0.37;0.30;;;7.30;99.90;;;;;;4994057;28;20314;-44
2023/04/13 18:58:25;;;;;;;0.30;0.10;;;7.30;99.90;;;;;;4993478;28;20711;-45
2023/04/13 19:00:53;;;;;;;0.23;0.20;;;7.30;99.90;;;;;;4996245;28;20237;-45
2023/04/13 19:03:20;;;;;;;0.20;0.20;;;7.30;99.90;;;;;;4992385;28;20259;-44
2023/04/13 19:05:47;;;;;;;0.70;0.30;;;7.20;99.90;;;;;;5002127;28;20631;-45
2023/04/13 19:08:14;;;;;;;0.70;0.50;;;7.20;99.90;;;;;;4985642;28;20222;-45
2023/04/13 19:10:43;;;;;;;0.47;0.47;;;7.20;99.90;;;;;;4987229;28;20714;-45
2023/04/13 19:13:13;;;;;;;0.67;0.67;;;7.10;99.90;;;;;;5001653;28;20272;-45
2023/04/13 19:15:40;;;;;;;1.10;1.00;;;7.10;99.90;;;;;;4977498;28;20639;-45
2023/04/13 19:18:09;;;;;;;1.10;0.73;;;7.10;99.90;;;;;;4974670;28;20295;-45
2023/04/13 19:20:36;;;;;;;0.83;0.70;;;7.00;99.90;;;;;;4992271;28;20638;-45
2023/04/13 19:23:03;;;;;;;0.97;0.97;;;6.90;99.90;;;;;;5007280;28;20268;-44
2023/04/13 19:25:31;;;;;;;1.03;0.73;;;7.00;99.90;;;;;;5013776;28;20685;-44
2023/04/13 19:27:59;;;;;;;3.13;2.57;;;7.00;99.90;;;;;;5013875;28;20252;-45
2023/04/13 19:30:26;;;;;;;3.13;2.07;;;7.10;99.90;;;;;;4991861;28;20258;-44
2023/04/13 19:32:54;;;;;;;2.73;2.53;;;6.90;99.90;;;;;;4998705;28;20266;-45
2023/04/13 19:35:23;;;;;;;4.57;3.00;;;6.90;99.90;;;;;;5000429;28;20556;-44
2023/04/13 19:37:50;;;;;;;3.27;2.97;;;6.90;99.90;;;;;;5006053;28;20215;-45
2023/04/13 19:40:17;;;;;;;1.90;1.80;;;6.80;99.90;;;;;;4997869;28;20592;-45
2023/04/13 19:42:45;;;;;;;3.40;1.20;;;6.80;99.90;;;;;;4994029;28;20260;-44
2023/04/13 19:45:15;;;;;;;8.77;4.37;;;6.80;99.90;;;;;;4992511;28;20198;-44
2023/04/13 19:47:44;;;;;;;2.47;1.13;;;6.80;99.90;;;;;;4998921;28;20205;-45
2023/04/13 19:53:33;;;;;;;1.90;0.17;;;6.80;99.90;;;;;;4985593;28;20585;-44
2023/04/13 19:56:01;;;;;;;0.47;0.47;;;6.80;99.90;;;;;;4989803;28;20202;-44
2023/04/13 19:58:27;;;;;;;0.30;0.30;;;6.70;99.90;;;;;;5008363;28;20672;-45
2023/04/13 20:00:57;;;;;;;1.90;0.30;;;6.60;99.90;;;;;;4998084;28;20818;-43
2023/04/13 20:03:24;;;;;;;1.37;0.20;;;6.60;99.90;;;;;;4990616;28;20702;-44
2023/04/13 20:05:52;;;;;;;0.30;0.27;;;6.60;99.90;;;;;;5001397;28;20652;-44
2023/04/13 20:08:19;;;;;;;0.40;0.30;;;6.50;99.90;;;;;;4993196;28;20214;-44
2023/04/13 20:10:46;;;;;;;0.20;0.20;;;6.50;99.90;;;;;;4979870;28;20228;-45
2023/04/13 20:13:13;;;;;;;0.50;0.20;;;6.60;99.90;;;;;;4977298;28;20207;-44
2023/04/13 20:15:39;;;;;;;1.23;0.30;;;6.50;99.90;;;;;;4996086;28;20977;-44
2023/04/13 20:18:08;;;;;;;2.90;0.40;;;6.50;99.90;;;;;;4975250;28;20259;-44
2023/04/13 20:20:36;;;;;;;0.50;0.30;;;6.40;99.90;;;;;;4991419;28;20221;-44
2023/04/13 20:23:04;;;;;;;1.50;0.90;;;6.40;99.90;;;;;;4995871;28;20203;-45
2023/04/13 20:25:30;;;;;;;0.27;0.27;;;6.40;99.90;;;;;;5009975;28;20216;-44
2023/04/13 20:27:57;;;;;;;0.20;0.20;;;6.50;99.90;;;;;;4987604;28;20200;-43
2023/04/13 20:30:25;;;;;;;1.73;0.37;;;6.40;99.90;;;;;;4990975;28;20684;-46
2023/04/13 20:32:52;;;;;;;1.70;1.23;;;6.40;99.90;;;;;;4989172;28;20205;-45
2023/04/13 20:35:21;;;;;;;1.00;0.90;;;6.40;99.90;;;;;;4994183;28;20246;-45
2023/04/13 20:37:50;;;;;;;1.60;0.80;;;6.50;99.90;;;;;;4990894;28;20212;-45
2023/04/13 20:40:17;;;;;;;0.87;0.80;;;6.50;99.90;;;;;;4992641;28;20639;-45
2023/04/13 20:42:44;;;;;;;0.60;0.60;;;6.50;99.90;;;;;;4988859;28;20284;-44
2023/04/13 20:45:13;;;;;;;0.80;0.80;;;6.60;99.90;;;;;;4988281;28;20221;-44
2023/04/13 20:47:41;;;;;;;0.60;0.60;;;6.60;99.90;;;;;;5011994;28;20306;-44
2023/04/13 20:50:09;;;;;;;0.40;0.40;;;6.60;99.90;;;;;;5011848;28;20232;-45
2023/04/13 20:52:40;;;;;;;1.00;0.70;;;6.60;99.90;;;;;;4989783;28;20231;-45
2023/04/13 20:55:09;;;;;;;1.27;1.23;;;6.60;99.90;;;;;;4997093;28;20201;-45
2023/04/13 20:57:40;;;;;;;1.07;0.80;;;6.60;99.90;;;;;;5012212;28;20247;-44
2023/04/13 21:00:10;;;;;;;1.60;0.60;;;6.80;99.90;;;;;;4995914;28;20229;-45
2023/04/13 21:02:37;;;;;;;0.87;0.87;;;6.70;99.90;;;;;;5005210;28;20215;-45
2023/04/13 21:05:06;;;;;;;0.90;0.70;;;6.60;99.90;;;;;;5004023;28;20204;-45
2023/04/13 21:07:33;;;;;;;3.23;1.03;;;6.60;99.90;;;;;;5003030;28;20296;-44